sensor_id;sensor_type;location;lat;lon;timestamp;pressure;altitude;pressure_sealevel;temperature;humidity
63808;BME280;49961;43.970;22.868;2023-02-12T00:00:11;102454.28;;;3.33;80.06
63808;BME280;49961;43.970;22.868;2023-02-12T00:01:12;102510.44;;;3.60;79.79
63808;BME280;49961;43.970;22.868;2023-02-12T00:02:13;102561.69;;;3.92;80.16
63808;BME280;49961;43.970;22.868;2023-02-12T00:03:13;102553.34;;;3.88;80.17
63808;BME280;49961;43.970;22.868;2023-02-12T00:04:14;102561.22;;;3.90;79.89
63808;BME280;49961;43.970;22.868;2023-02-12T00:05:15;102562.81;;;3.91;79.73
63808;BME280;49961;43.970;22.868;2023-02-12T00:06:16;102457.97;;;3.37;79.50
63808;BME280;49961;43.970;22.868;2023-02-12T00:07:16;102551.38;;;3.89;79.59
63808;BME280;49961;43.970;22.868;2023-02-12T00:08:17;102546.81;;;3.93;80.01
63808;BME280;49961;43.970;22.868;2023-02-12T00:09:17;102522.34;;;3.76;79.49
63808;BME280;49961;43.970;22.868;2023-02-12T00:10:18;102537.66;;;3.89;79.52
63808;BME280;49961;43.970;22.868;2023-02-12T00:11:21;102534.91;;;3.89;78.88
63808;BME280;49961;43.970;22.868;2023-02-12T00:12:22;102514.69;;;3.69;78.38
63808;BME280;49961;43.970;22.868;2023-02-12T00:13:22;102540.78;;;3.99;77.54
63808;BME280;49961;43.970;22.868;2023-02-12T00:14:23;102511.03;;;3.89;77.31
63808;BME280;49961;43.970;22.868;2023-02-12T00:15:23;102557.47;;;4.06;76.65
63808;BME280;49961;43.970;22.868;2023-02-12T00:16:26;102562.16;;;4.06;76.50
63808;BME280;49961;43.970;22.868;2023-02-12T00:17:27;102543.19;;;4.01;76.67
63808;BME280;49961;43.970;22.868;2023-02-12T00:18:28;102551.28;;;4.09;76.86
63808;BME280;49961;43.970;22.868;2023-02-12T00:19:29;102549.94;;;4.03;76.66
63808;BME280;49961;43.970;22.868;2023-02-12T00:20:29;102555.06;;;4.05;77.26
63808;BME280;49961;43.970;22.868;2023-02-12T00:21:30;102555.84;;;4.05;77.28
63808;BME280;49961;43.970;22.868;2023-02-12T00:22:30;102552.44;;;4.08;77.51
63808;BME280;49961;43.970;22.868;2023-02-12T00:23:31;102558.72;;;4.09;77.08
63808;BME280;49961;43.970;22.868;2023-02-12T00:24:31;102547.63;;;4.05;76.73
63808;BME280;49961;43.970;22.868;2023-02-12T00:25:33;102543.63;;;4.03;76.92
63808;BME280;49961;43.970;22.868;2023-02-12T00:26:34;102555.19;;;4.08;77.09
63808;BME280;49961;43.970;22.868;2023-02-12T00:27:35;102520.88;;;3.78;76.17
63808;BME280;49961;43.970;22.868;2023-02-12T00:28:35;102546.63;;;4.10;76.18
63808;BME280;49961;43.970;22.868;2023-02-12T00:29:36;102400.03;;;3.15;76.19
63808;BME280;49961;43.970;22.868;2023-02-12T00:30:37;102549.13;;;4.03;76.23
63808;BME280;49961;43.970;22.868;2023-02-12T00:31:37;102540.44;;;4.01;76.64
63808;BME280;49961;43.970;22.868;2023-02-12T00:32:38;102533.69;;;3.98;76.96
63808;BME280;49961;43.970;22.868;2023-02-12T00:33:38;102520.31;;;3.85;76.95
63808;BME280;49961;43.970;22.868;2023-02-12T00:34:39;102527.66;;;4.05;76.45
63808;BME280;49961;43.970;22.868;2023-02-12T00:35:40;102531.97;;;4.06;76.50
63808;BME280;49961;43.970;22.868;2023-02-12T00:36:40;102516.88;;;4.12;76.50
63808;BME280;49961;43.970;22.868;2023-02-12T00:37:41;102522.47;;;4.15;75.98
63808;BME280;49961;43.970;22.868;2023-02-12T00:38:41;102521.91;;;4.22;74.43
63808;BME280;49961;43.970;22.868;2023-02-12T00:39:42;102508.88;;;4.19;73.35
63808;BME280;49961;43.970;22.868;2023-02-12T00:40:42;102440.19;;;3.79;73.87
63808;BME280;49961;43.970;22.868;2023-02-12T00:41:43;102522.38;;;4.24;73.26
63808;BME280;49961;43.970;22.868;2023-02-12T00:42:43;102506.13;;;4.31;73.20
63808;BME280;49961;43.970;22.868;2023-02-12T00:43:43;102507.03;;;4.35;72.26
63808;BME280;49961;43.970;22.868;2023-02-12T00:44:44;102467.38;;;4.08;72.27
63808;BME280;49961;43.970;22.868;2023-02-12T00:45:45;102515.03;;;4.40;72.06
63808;BME280;49961;43.970;22.868;2023-02-12T00:46:45;102504.28;;;4.35;72.03
63808;BME280;49961;43.970;22.868;2023-02-12T00:47:46;102514.22;;;4.27;72.34
63808;BME280;49961;43.970;22.868;2023-02-12T00:48:46;102510.13;;;4.21;72.55
63808;BME280;49961;43.970;22.868;2023-02-12T00:49:47;102516.44;;;4.22;72.93
63808;BME280;49961;43.970;22.868;2023-02-12T00:50:48;102545.69;;;4.18;71.76
63808;BME280;49961;43.970;22.868;2023-02-12T00:51:49;102503.53;;;4.22;72.28
63808;BME280;49961;43.970;22.868;2023-02-12T00:52:49;102495.59;;;4.09;71.94
63808;BME280;49961;43.970;22.868;2023-02-12T00:53:50;102515.97;;;4.20;72.55
63808;BME280;49961;43.970;22.868;2023-02-12T00:54:50;102507.53;;;4.25;72.41
63808;BME280;49961;43.970;22.868;2023-02-12T00:55:51;102498.38;;;4.21;71.92
63808;BME280;49961;43.970;22.868;2023-02-12T00:56:51;102513.69;;;4.22;71.90
63808;BME280;49961;43.970;22.868;2023-02-12T00:57:51;102516.88;;;4.24;72.33
63808;BME280;49961;43.970;22.868;2023-02-12T00:58:52;102512.63;;;4.26;72.33
63808;BME280;49961;43.970;22.868;2023-02-12T00:59:52;102428.19;;;3.72;72.29
63808;BME280;49961;43.970;22.868;2023-02-12T01:00:54;102430.59;;;3.73;72.90
63808;BME280;49961;43.970;22.868;2023-02-12T01:01:54;102509.34;;;4.21;73.36
63808;BME280;49961;43.970;22.868;2023-02-12T01:02:55;102519.38;;;4.29;73.14
63808;BME280;49961;43.970;22.868;2023-02-12T01:03:56;102519.84;;;4.31;73.06
63808;BME280;49961;43.970;22.868;2023-02-12T01:04:56;102516.66;;;4.29;72.12
63808;BME280;49961;43.970;22.868;2023-02-12T01:05:57;102517.91;;;4.31;72.32
63808;BME280;49961;43.970;22.868;2023-02-12T01:06:58;102521.31;;;4.40;71.95
63808;BME280;49961;43.970;22.868;2023-02-12T01:07:58;102434.91;;;3.86;70.97
63808;BME280;49961;43.970;22.868;2023-02-12T01:08:59;102515.72;;;4.49;70.53
63808;BME280;49961;43.970;22.868;2023-02-12T01:10:01;102521.31;;;4.40;70.03
63808;BME280;49961;43.970;22.868;2023-02-12T01:11:03;102424.44;;;3.76;70.42
63808;BME280;49961;43.970;22.868;2023-02-12T01:12:04;102520.41;;;4.48;70.31
63808;BME280;49961;43.970;22.868;2023-02-12T01:13:05;102521.19;;;4.49;70.36
63808;BME280;49961;43.970;22.868;2023-02-12T01:14:06;102512.50;;;4.35;70.65
63808;BME280;49961;43.970;22.868;2023-02-12T01:15:07;102519.94;;;4.46;70.33
63808;BME280;49961;43.970;22.868;2023-02-12T01:16:18;102414.13;;;3.85;70.01
63808;BME280;49961;43.970;22.868;2023-02-12T01:17:19;102521.31;;;4.52;70.06
63808;BME280;49961;43.970;22.868;2023-02-12T01:18:20;102526.69;;;4.49;70.51
63808;BME280;49961;43.970;22.868;2023-02-12T01:19:20;102514.44;;;4.46;70.30
63808;BME280;49961;43.970;22.868;2023-02-12T01:20:23;102523.84;;;4.45;70.21
63808;BME280;49961;43.970;22.868;2023-02-12T01:21:26;102517.00;;;4.39;71.09
63808;BME280;49961;43.970;22.868;2023-02-12T01:22:27;102520.19;;;4.41;70.78
63808;BME280;49961;43.970;22.868;2023-02-12T01:23:27;102522.91;;;4.41;71.04
63808;BME280;49961;43.970;22.868;2023-02-12T01:24:28;102514.25;;;4.39;70.94
63808;BME280;49961;43.970;22.868;2023-02-12T01:25:28;102516.28;;;4.42;71.66
63808;BME280;49961;43.970;22.868;2023-02-12T01:26:31;102514.47;;;4.34;71.82
63808;BME280;49961;43.970;22.868;2023-02-12T01:27:32;102504.28;;;4.35;72.36
63808;BME280;49961;43.970;22.868;2023-02-12T01:28:33;102509.91;;;4.38;72.00
63808;BME280;49961;43.970;22.868;2023-02-12T01:29:34;102495.13;;;4.43;71.82
63808;BME280;49961;43.970;22.868;2023-02-12T01:30:35;102488.38;;;4.40;70.88
63808;BME280;49961;43.970;22.868;2023-02-12T01:31:37;102501.91;;;4.33;71.52
63808;BME280;49961;43.970;22.868;2023-02-12T01:32:38;102504.66;;;4.33;71.80
63808;BME280;49961;43.970;22.868;2023-02-12T01:33:39;102508.88;;;4.31;71.08
63808;BME280;49961;43.970;22.868;2023-02-12T01:34:39;102509.44;;;4.24;71.18
63808;BME280;49961;43.970;22.868;2023-02-12T01:35:40;102507.16;;;4.26;71.71
63808;BME280;49961;43.970;22.868;2023-02-12T01:36:40;102507.25;;;4.30;71.19
63808;BME280;49961;43.970;22.868;2023-02-12T01:37:41;102509.31;;;4.33;71.44
63808;BME280;49961;43.970;22.868;2023-02-12T01:38:41;102518.72;;;4.32;71.19
63808;BME280;49961;43.970;22.868;2023-02-12T01:39:42;102500.19;;;4.17;71.27
63808;BME280;49961;43.970;22.868;2023-02-12T01:40:42;102506.72;;;4.24;70.45
63808;BME280;49961;43.970;22.868;2023-02-12T01:41:43;102510.56;;;4.35;70.41
63808;BME280;49961;43.970;22.868;2023-02-12T01:42:44;102527.41;;;4.46;70.06
63808;BME280;49961;43.970;22.868;2023-02-12T01:43:45;102498.56;;;4.28;69.84
63808;BME280;49961;43.970;22.868;2023-02-12T01:46:13;102525.19;;;4.51;69.76
63808;BME280;49961;43.970;22.868;2023-02-12T01:47:16;102376.56;;;3.50;69.91
63808;BME280;49961;43.970;22.868;2023-02-12T01:48:18;102518.91;;;4.39;69.51
63808;BME280;49961;43.970;22.868;2023-02-12T01:50:26;102507.16;;;4.38;70.18
63808;BME280;49961;43.970;22.868;2023-02-12T01:51:27;102508.41;;;4.41;70.26
63808;BME280;49961;43.970;22.868;2023-02-12T01:52:31;102513.31;;;4.35;70.63
63808;BME280;49961;43.970;22.868;2023-02-12T01:53:36;102497.31;;;4.37;70.81
63808;BME280;49961;43.970;22.868;2023-02-12T01:54:37;102502.13;;;4.40;71.24
63808;BME280;49961;43.970;22.868;2023-02-12T01:55:38;102513.31;;;4.35;71.23
63808;BME280;49961;43.970;22.868;2023-02-12T01:56:40;102523.50;;;4.35;70.25
63808;BME280;49961;43.970;22.868;2023-02-12T01:57:43;102500.97;;;4.29;70.54
63808;BME280;49961;43.970;22.868;2023-02-12T01:58:46;102499.03;;;4.30;70.62
63808;BME280;49961;43.970;22.868;2023-02-12T01:59:50;102497.91;;;4.31;70.22
63808;BME280;49961;43.970;22.868;2023-02-12T02:00:53;102485.44;;;4.33;69.84
63808;BME280;49961;43.970;22.868;2023-02-12T02:01:54;102479.94;;;4.33;70.44
63808;BME280;49961;43.970;22.868;2023-02-12T02:02:57;102481.88;;;4.33;70.08
63808;BME280;49961;43.970;22.868;2023-02-12T02:04:12;102487.94;;;4.38;69.75
63808;BME280;49961;43.970;22.868;2023-02-12T02:05:24;102462.69;;;4.21;68.69
63808;BME280;49961;43.970;22.868;2023-02-12T02:06:31;102509.44;;;4.36;68.88
63808;BME280;49961;43.970;22.868;2023-02-12T02:07:33;102494.56;;;4.37;68.34
63808;BME280;49961;43.970;22.868;2023-02-12T02:08:34;102489.53;;;4.39;68.10
63808;BME280;49961;43.970;22.868;2023-02-12T02:09:35;102499.03;;;4.42;68.55
63808;BME280;49961;43.970;22.868;2023-02-12T02:10:37;102492.03;;;4.44;67.85
63808;BME280;49961;43.970;22.868;2023-02-12T02:11:37;102331.22;;;3.40;67.80
63808;BME280;49961;43.970;22.868;2023-02-12T02:12:57;102450.47;;;4.18;67.69
63808;BME280;49961;43.970;22.868;2023-02-12T02:14:16;102390.81;;;3.79;67.48
63808;BME280;49961;43.970;22.868;2023-02-12T02:15:33;102383.84;;;3.82;67.83
63808;BME280;49961;43.970;22.868;2023-02-12T02:16:36;102505.88;;;4.48;67.38
63808;BME280;49961;43.970;22.868;2023-02-12T02:19:02;102491.66;;;4.58;67.18
63808;BME280;49961;43.970;22.868;2023-02-12T02:20:35;102380.56;;;3.76;67.18
63808;BME280;49961;43.970;22.868;2023-02-12T02:24:39;102481.06;;;4.32;67.17
63808;BME280;49961;43.970;22.868;2023-02-12T02:31:41;102339.66;;;3.47;65.69
63808;BME280;49961;43.970;22.868;2023-02-12T02:32:49;102529.63;;;4.68;65.75
63808;BME280;49961;43.970;22.868;2023-02-12T02:34:09;102491.34;;;4.47;65.61
63808;BME280;49961;43.970;22.868;2023-02-12T02:35:27;102529.75;;;4.71;65.28
63808;BME280;49961;43.970;22.868;2023-02-12T02:36:37;102528.94;;;4.71;65.87
63808;BME280;49961;43.970;22.868;2023-02-12T02:40:19;102536.38;;;4.70;66.32
63808;BME280;49961;43.970;22.868;2023-02-12T02:41:30;102541.16;;;4.73;66.81
63808;BME280;49961;43.970;22.868;2023-02-12T02:43:00;102531.56;;;4.79;67.27
63808;BME280;49961;43.970;22.868;2023-02-12T02:44:25;102452.06;;;4.19;66.36
63808;BME280;49961;43.970;22.868;2023-02-12T02:45:34;102534.06;;;4.72;66.90
63808;BME280;49961;43.970;22.868;2023-02-12T02:46:54;102541.53;;;4.72;67.39
63808;BME280;49961;43.970;22.868;2023-02-12T02:48:02;102541.16;;;4.73;67.57
63808;BME280;49961;43.970;22.868;2023-02-12T02:49:08;102533.97;;;4.69;67.75
63808;BME280;49961;43.970;22.868;2023-02-12T02:50:14;102540.97;;;4.66;66.98
63808;BME280;49961;43.970;22.868;2023-02-12T02:51:26;102528.81;;;4.67;67.08
63808;BME280;49961;43.970;22.868;2023-02-12T02:54:05;102467.56;;;4.27;66.35
63808;BME280;49961;43.970;22.868;2023-02-12T02:55:09;102530.19;;;4.73;66.18
63808;BME280;49961;43.970;22.868;2023-02-12T02:56:15;102538.41;;;4.73;65.84
63808;BME280;49961;43.970;22.868;2023-02-12T02:57:22;102532.69;;;4.78;65.79
63808;BME280;49961;43.970;22.868;2023-02-12T02:58:34;102545.63;;;4.78;65.32
63808;BME280;49961;43.970;22.868;2023-02-12T02:59:39;102477.31;;;4.37;65.74
63808;BME280;49961;43.970;22.868;2023-02-12T03:00:46;102539.22;;;4.74;65.62
63808;BME280;49961;43.970;22.868;2023-02-12T03:01:58;102549.16;;;4.78;65.65
63808;BME280;49961;43.970;22.868;2023-02-12T03:03:11;102535.19;;;4.83;65.60
63808;BME280;49961;43.970;22.868;2023-02-12T03:04:23;102491.22;;;4.44;66.14
63808;BME280;49961;43.970;22.868;2023-02-12T03:05:36;102530.06;;;4.82;65.94
63808;BME280;49961;43.970;22.868;2023-02-12T03:07:56;102559.91;;;4.83;66.80
63808;BME280;49961;43.970;22.868;2023-02-12T03:09:03;102398.47;;;3.98;66.66
63808;BME280;49961;43.970;22.868;2023-02-12T03:10:10;102572.63;;;4.88;67.27
63808;BME280;49961;43.970;22.868;2023-02-12T03:11:27;102551.81;;;4.87;67.48
63808;BME280;49961;43.970;22.868;2023-02-12T03:12:40;102538.31;;;4.82;67.39
63808;BME280;49961;43.970;22.868;2023-02-12T03:14:08;102491.09;;;4.52;68.04
63808;BME280;49961;43.970;22.868;2023-02-12T03:15:58;102541.16;;;4.85;67.22
63808;BME280;49961;43.970;22.868;2023-02-12T03:17:24;102540.03;;;4.74;68.21
63808;BME280;49961;43.970;22.868;2023-02-12T03:18:32;102535.09;;;4.80;67.95
63808;BME280;49961;43.970;22.868;2023-02-12T03:19:40;102523.88;;;4.85;68.31
63808;BME280;49961;43.970;22.868;2023-02-12T03:20:45;102540.81;;;4.87;67.70
63808;BME280;49961;43.970;22.868;2023-02-12T03:22:15;102543.66;;;4.90;66.28
63808;BME280;49961;43.970;22.868;2023-02-12T03:23:23;102528.00;;;4.79;65.42
63808;BME280;49961;43.970;22.868;2023-02-12T03:24:35;102525.69;;;4.81;65.74
63808;BME280;49961;43.970;22.868;2023-02-12T03:25:42;102395.13;;;4.04;65.22
63808;BME280;49961;43.970;22.868;2023-02-12T03:26:46;102547.31;;;4.94;64.55
63808;BME280;49961;43.970;22.868;2023-02-12T03:28:27;102543.72;;;5.06;65.32
63808;BME280;49961;43.970;22.868;2023-02-12T03:29:28;102543.84;;;5.09;63.94
63808;BME280;49961;43.970;22.868;2023-02-12T03:30:42;102450.63;;;4.49;63.79
63808;BME280;49961;43.970;22.868;2023-02-12T03:33:27;102547.88;;;5.27;62.67
63808;BME280;49961;43.970;22.868;2023-02-12T03:36:55;102545.06;;;5.39;61.28
63808;BME280;49961;43.970;22.868;2023-02-12T03:38:08;102557.31;;;5.42;61.20
63808;BME280;49961;43.970;22.868;2023-02-12T03:39:27;102436.16;;;4.64;60.54
63808;BME280;49961;43.970;22.868;2023-02-12T03:40:34;102547.13;;;5.42;59.72
63808;BME280;49961;43.970;22.868;2023-02-12T03:41:42;102539.22;;;5.41;60.05
63808;BME280;49961;43.970;22.868;2023-02-12T03:42:58;102548.28;;;5.41;60.20
63808;BME280;49961;43.970;22.868;2023-02-12T03:45:18;102538.97;;;5.46;60.71
63808;BME280;49961;43.970;22.868;2023-02-12T03:46:23;102545.97;;;5.43;60.65
63808;BME280;49961;43.970;22.868;2023-02-12T03:49:10;102537.38;;;5.45;60.11
63808;BME280;49961;43.970;22.868;2023-02-12T03:52:12;102555.72;;;5.41;61.18
63808;BME280;49961;43.970;22.868;2023-02-12T03:53:13;102543.78;;;5.49;61.16
63808;BME280;49961;43.970;22.868;2023-02-12T03:54:17;102470.50;;;5.13;60.43
63808;BME280;49961;43.970;22.868;2023-02-12T03:55:18;102545.38;;;5.50;60.03
63808;BME280;49961;43.970;22.868;2023-02-12T03:56:23;102541.63;;;5.42;59.68
63808;BME280;49961;43.970;22.868;2023-02-12T03:57:27;102543.22;;;5.43;60.19
63808;BME280;49961;43.970;22.868;2023-02-12T03:58:33;102543.69;;;5.45;60.46
63808;BME280;49961;43.970;22.868;2023-02-12T03:59:36;102534.06;;;5.39;60.34
63808;BME280;49961;43.970;22.868;2023-02-12T04:00:38;102541.03;;;5.49;59.37
63808;BME280;49961;43.970;22.868;2023-02-12T04:01:39;102545.06;;;5.39;58.85
63808;BME280;49961;43.970;22.868;2023-02-12T04:02:40;102425.97;;;4.65;59.67
63808;BME280;49961;43.970;22.868;2023-02-12T04:03:42;102548.72;;;5.43;59.61
63808;BME280;49961;43.970;22.868;2023-02-12T04:04:44;102555.47;;;5.46;59.39
63808;BME280;49961;43.970;22.868;2023-02-12T04:05:46;102524.81;;;5.32;59.14
63808;BME280;49961;43.970;22.868;2023-02-12T04:06:48;102550.31;;;5.44;59.49
63808;BME280;49961;43.970;22.868;2023-02-12T04:07:50;102552.38;;;5.47;59.70
63808;BME280;49961;43.970;22.868;2023-02-12T04:08:52;102548.13;;;5.50;59.77
63808;BME280;49961;43.970;22.868;2023-02-12T04:09:53;102546.19;;;5.50;59.52
63808;BME280;49961;43.970;22.868;2023-02-12T04:14:19;102547.88;;;5.55;60.14
63808;BME280;49961;43.970;22.868;2023-02-12T04:15:36;102550.63;;;5.55;59.52
63808;BME280;49961;43.970;22.868;2023-02-12T04:17:04;102543.16;;;5.55;60.48
63808;BME280;49961;43.970;22.868;2023-02-12T04:19:12;102559.28;;;5.57;60.13
63808;BME280;49961;43.970;22.868;2023-02-12T04:21:59;102550.53;;;5.51;60.41
63808;BME280;49961;43.970;22.868;2023-02-12T04:25:04;102551.22;;;5.48;60.19
63808;BME280;49961;43.970;22.868;2023-02-12T04:26:27;102540.69;;;5.50;60.37
63808;BME280;49961;43.970;22.868;2023-02-12T04:30:13;102545.19;;;5.43;61.24
63808;BME280;49961;43.970;22.868;2023-02-12T04:31:30;102550.94;;;5.38;61.16
63808;BME280;49961;43.970;22.868;2023-02-12T04:32:40;102550.94;;;5.38;61.91
63808;BME280;49961;43.970;22.868;2023-02-12T04:35:42;102551.97;;;5.33;62.77
63808;BME280;49961;43.970;22.868;2023-02-12T04:36:55;102555.97;;;5.36;63.32
63808;BME280;49961;43.970;22.868;2023-02-12T04:38:21;102560.78;;;5.39;62.93
63808;BME280;49961;43.970;22.868;2023-02-12T04:39:29;102529.53;;;5.31;63.65
63808;BME280;49961;43.970;22.868;2023-02-12T04:40:30;102470.50;;;4.98;63.48
63808;BME280;49961;43.970;22.868;2023-02-12T04:41:31;102546.53;;;5.49;62.95
63808;BME280;49961;43.970;22.868;2023-02-12T04:42:43;102546.97;;;5.51;62.76
63808;BME280;49961;43.970;22.868;2023-02-12T04:43:44;102485.22;;;5.05;63.06
63808;BME280;49961;43.970;22.868;2023-02-12T04:44:45;102547.31;;;5.49;63.35
63808;BME280;49961;43.970;22.868;2023-02-12T04:45:45;102545.47;;;5.53;63.10
63808;BME280;49961;43.970;22.868;2023-02-12T04:46:46;102545.13;;;5.55;63.09
63808;BME280;49961;43.970;22.868;2023-02-12T04:47:46;102541.63;;;5.58;62.57
63808;BME280;49961;43.970;22.868;2023-02-12T04:48:52;102551.84;;;5.57;62.35
63808;BME280;49961;43.970;22.868;2023-02-12T04:49:53;102544.59;;;5.65;62.11
63808;BME280;49961;43.970;22.868;2023-02-12T04:50:53;102548.13;;;5.65;62.29
63808;BME280;49961;43.970;22.868;2023-02-12T04:51:54;102549.63;;;5.63;61.98
63808;BME280;49961;43.970;22.868;2023-02-12T04:52:54;102552.13;;;5.68;61.81
63808;BME280;49961;43.970;22.868;2023-02-12T04:53:55;102560.03;;;5.69;61.84
63808;BME280;49961;43.970;22.868;2023-02-12T04:54:55;102555.44;;;5.73;62.29
63808;BME280;49961;43.970;22.868;2023-02-12T04:55:55;102560.59;;;5.75;61.96
63808;BME280;49961;43.970;22.868;2023-02-12T04:56:56;102510.47;;;5.38;61.78
63808;BME280;49961;43.970;22.868;2023-02-12T04:57:56;102553.44;;;5.58;62.14
63808;BME280;49961;43.970;22.868;2023-02-12T04:58:57;102550.78;;;5.62;62.18
63808;BME280;49961;43.970;22.868;2023-02-12T04:59:57;102531.72;;;5.53;62.39
63808;BME280;49961;43.970;22.868;2023-02-12T05:00:58;102447.69;;;4.97;61.89
63808;BME280;49961;43.970;22.868;2023-02-12T05:01:58;102555.78;;;5.72;62.50
63808;BME280;49961;43.970;22.868;2023-02-12T05:02:59;102558.44;;;5.68;61.65
63808;BME280;49961;43.970;22.868;2023-02-12T05:04:00;102567.13;;;5.70;61.87
63808;BME280;49961;43.970;22.868;2023-02-12T05:05:01;102477.97;;;5.13;62.11
63808;BME280;49961;43.970;22.868;2023-02-12T05:06:04;102534.91;;;5.55;61.92
63808;BME280;49961;43.970;22.868;2023-02-12T05:07:05;102562.44;;;5.71;61.55
63808;BME280;49961;43.970;22.868;2023-02-12T05:08:05;102550.09;;;5.65;62.67
63808;BME280;49961;43.970;22.868;2023-02-12T05:09:06;102568.28;;;5.69;62.43
63808;BME280;49961;43.970;22.868;2023-02-12T05:10:07;102569.19;;;5.73;62.21
63808;BME280;49961;43.970;22.868;2023-02-12T05:11:09;102562.88;;;5.73;61.94
63808;BME280;49961;43.970;22.868;2023-02-12T05:12:09;102565.28;;;5.74;61.75
63808;BME280;49961;43.970;22.868;2023-02-12T05:13:09;102560.94;;;5.73;62.59
63808;BME280;49961;43.970;22.868;2023-02-12T05:14:10;102564.03;;;5.72;62.68
63808;BME280;49961;43.970;22.868;2023-02-12T05:15:11;102571.50;;;5.71;62.28
63808;BME280;49961;43.970;22.868;2023-02-12T05:16:11;102568.09;;;5.62;62.76
63808;BME280;49961;43.970;22.868;2023-02-12T05:17:12;102570.94;;;5.66;63.44
63808;BME280;49961;43.970;22.868;2023-02-12T05:18:12;102572.88;;;5.65;63.97
63808;BME280;49961;43.970;22.868;2023-02-12T05:19:12;102572.09;;;5.65;63.49
63808;BME280;49961;43.970;22.868;2023-02-12T05:20:13;102574.03;;;5.64;64.37
63808;BME280;49961;43.970;22.868;2023-02-12T05:21:14;102570.13;;;5.65;63.89
63808;BME280;49961;43.970;22.868;2023-02-12T05:22:14;102581.25;;;5.69;64.46
63808;BME280;49961;43.970;22.868;2023-02-12T05:23:15;102541.63;;;5.42;64.90
63808;BME280;49961;43.970;22.868;2023-02-12T05:24:15;102573.19;;;5.76;64.92
63808;BME280;49961;43.970;22.868;2023-02-12T05:25:16;102578.94;;;5.71;65.32
63808;BME280;49961;43.970;22.868;2023-02-12T05:26:18;102521.38;;;5.35;64.95
63808;BME280;49961;43.970;22.868;2023-02-12T05:27:19;102587.88;;;5.80;65.78
63808;BME280;49961;43.970;22.868;2023-02-12T05:28:19;102585.00;;;5.76;65.44
63808;BME280;49961;43.970;22.868;2023-02-12T05:29:20;102582.13;;;5.57;65.10
63808;BME280;49961;43.970;22.868;2023-02-12T05:30:20;102588.19;;;5.78;64.92
63808;BME280;49961;43.970;22.868;2023-02-12T05:31:21;102591.28;;;5.77;64.87
63808;BME280;49961;43.970;22.868;2023-02-12T05:32:22;102589.78;;;5.79;65.09
63808;BME280;49961;43.970;22.868;2023-02-12T05:33:23;102584.78;;;5.81;66.22
63808;BME280;49961;43.970;22.868;2023-02-12T05:34:23;102588.06;;;5.87;65.46
63808;BME280;49961;43.970;22.868;2023-02-12T05:35:23;102585.38;;;5.90;64.39
63808;BME280;49961;43.970;22.868;2023-02-12T05:36:24;102506.56;;;5.39;64.40
63808;BME280;49961;43.970;22.868;2023-02-12T05:37:25;102588.25;;;5.94;64.70
63808;BME280;49961;43.970;22.868;2023-02-12T05:38:25;102592.94;;;5.93;65.20
63808;BME280;49961;43.970;22.868;2023-02-12T05:39:25;102528.06;;;5.49;64.34
63808;BME280;49961;43.970;22.868;2023-02-12T05:40:26;102606.88;;;6.00;63.49
63808;BME280;49961;43.970;22.868;2023-02-12T05:41:27;102597.75;;;5.96;63.94
63808;BME280;49961;43.970;22.868;2023-02-12T05:42:28;102604.38;;;5.95;64.70
63808;BME280;49961;43.970;22.868;2023-02-12T05:43:30;102599.16;;;5.90;64.48
63808;BME280;49961;43.970;22.868;2023-02-12T05:44:30;102600.84;;;5.95;64.11
63808;BME280;49961;43.970;22.868;2023-02-12T05:45:31;102605.19;;;5.96;64.29
63808;BME280;49961;43.970;22.868;2023-02-12T05:46:32;102607.16;;;5.95;64.43
63808;BME280;49961;43.970;22.868;2023-02-12T05:47:33;102607.53;;;5.94;64.88
63808;BME280;49961;43.970;22.868;2023-02-12T05:48:34;102613.38;;;5.92;65.05
63808;BME280;49961;43.970;22.868;2023-02-12T05:49:35;102614.97;;;5.93;64.93
63808;BME280;49961;43.970;22.868;2023-02-12T05:50:36;102594.28;;;5.84;65.21
63808;BME280;49961;43.970;22.868;2023-02-12T05:51:36;102612.31;;;5.97;65.77
63808;BME280;49961;43.970;22.868;2023-02-12T05:52:37;102558.13;;;5.58;65.35
63808;BME280;49961;43.970;22.868;2023-02-12T05:53:38;102499.97;;;5.13;65.65
63808;BME280;49961;43.970;22.868;2023-02-12T05:54:39;102625.16;;;5.93;66.06
63808;BME280;49961;43.970;22.868;2023-02-12T05:55:39;102628.81;;;5.97;65.99
63808;BME280;49961;43.970;22.868;2023-02-12T05:56:45;102638.75;;;6.01;65.78
63808;BME280;49961;43.970;22.868;2023-02-12T05:57:46;102634.41;;;6.00;66.25
63808;BME280;49961;43.970;22.868;2023-02-12T05:58:51;102624.56;;;5.99;66.51
63808;BME280;49961;43.970;22.868;2023-02-12T05:59:52;102646.22;;;6.01;66.69
63808;BME280;49961;43.970;22.868;2023-02-12T06:00:53;102638.06;;;6.04;67.35
63808;BME280;49961;43.970;22.868;2023-02-12T06:01:53;102544.03;;;5.44;67.58
63808;BME280;49961;43.970;22.868;2023-02-12T06:02:53;102637.78;;;6.09;67.67
63808;BME280;49961;43.970;22.868;2023-02-12T06:03:54;102637.38;;;6.07;67.88
63808;BME280;49961;43.970;22.868;2023-02-12T06:04:55;102646.06;;;6.09;67.97
63808;BME280;49961;43.970;22.868;2023-02-12T06:05:55;102646.50;;;6.11;67.75
63808;BME280;49961;43.970;22.868;2023-02-12T06:06:55;102636.38;;;6.15;68.01
63808;BME280;49961;43.970;22.868;2023-02-12T06:07:56;102641.09;;;6.15;68.09
63808;BME280;49961;43.970;22.868;2023-02-12T06:08:57;102636.56;;;6.07;68.00
63808;BME280;49961;43.970;22.868;2023-02-12T06:09:57;102647.84;;;6.17;68.05
63808;BME280;49961;43.970;22.868;2023-02-12T06:11:03;102652.47;;;6.13;68.75
63808;BME280;49961;43.970;22.868;2023-02-12T06:12:04;102657.63;;;6.15;69.06
63808;BME280;49961;43.970;22.868;2023-02-12T06:13:04;102654.06;;;6.14;69.38
63808;BME280;49961;43.970;22.868;2023-02-12T06:14:07;102655.13;;;6.10;69.76